KLBE/LBE METAR and TAF weather

Enter ICAO airport designator
Station Type Date Time Source
KLBE METAR 2020/10/20 16:47 UTC NOAA

KLBE 201647Z 22007KT 10SM -DZ BKN020 OVC030 18/14 A3021


Station Type Date Time Source
KLBE Decoded METAR 2020/10/20 16:47 UTC NOAA

Latrobe / Westmorland, PA, United States (KLBE) 40-17N 079-24W
Oct 20, 2020 - 12:47 PM EDT / 2020.10.20 1647 UTC
Wind: from the SW (220 degrees) at 8 MPH (7 KT):0
Visibility: 10 mile(s):0
Sky conditions: overcast
Weather: light drizzle
Temperature: 64 F (18 C)
Dew Point: 57 F (14 C)
Relative Humidity: 77%
Pressure (altimeter): 30.21 in. Hg (1023 hPa)
ob: KLBE 201647Z 22007KT 10SM -DZ BKN020 OVC030 18/14 A3021
cycle: 17

Station Type Date Time Source
KLBE TAF 2020/10/20 18:30 UTC NOAA

TAF KLBE 201729Z 2018/2118 23007KT P6SM OVC025
FM202200 22003KT P6SM BKN035
FM211000 20007KT P6SM SCT035
FM211400 21009G19KT P6SM SCT040

Example: see airport list